createdAt,value
2022-12-14T00:02:12.883Z,91.70
2022-12-14T00:04:41.234Z,97.90
2022-12-14T00:07:09.947Z,92.03
2022-12-14T00:09:38.627Z,95.90
2022-12-14T00:12:07.621Z,101.15
2022-12-14T00:14:37.719Z,89.55
2022-12-14T00:17:06.390Z,96.82
2022-12-14T00:19:34.753Z,96.18
2022-12-14T00:22:03.429Z,97.70
2022-12-14T00:24:32.027Z,97.78
2022-12-14T00:27:00.735Z,92.90
2022-12-14T00:29:29.707Z,97.00
2022-12-14T00:31:59.719Z,90.25
2022-12-14T00:34:28.053Z,88.32
2022-12-14T00:36:56.681Z,89.45
2022-12-14T00:39:25.336Z,91.45
2022-12-14T00:41:53.897Z,93.40
2022-12-14T00:44:22.589Z,96.20
2022-12-14T00:46:50.848Z,91.97
2022-12-14T00:49:20.865Z,94.05
2022-12-14T00:51:49.449Z,86.18
2022-12-14T00:54:18.468Z,92.43
2022-12-14T00:56:47.102Z,25.80
2022-12-14T00:59:15.693Z,86.80
2022-12-14T01:01:44.176Z,98.85
2022-12-14T01:04:19.679Z,99.28
2022-12-14T01:06:51.247Z,98.57
2022-12-14T01:09:21.427Z,95.88
2022-12-14T01:11:50.157Z,94.03
2022-12-14T01:14:19.945Z,82.07
2022-12-14T01:16:48.525Z,104.45
2022-12-14T01:19:17.370Z,97.72
2022-12-14T01:21:46.174Z,94.85
2022-12-14T01:24:16.208Z,100.82
2022-12-14T01:26:44.877Z,106.22
2022-12-14T01:29:13.652Z,95.53
2022-12-14T01:31:42.049Z,97.90
2022-12-14T01:34:11.416Z,107.25
2022-12-14T01:36:40.560Z,123.47
2022-12-14T01:39:13.934Z,87.63
2022-12-14T01:41:45.822Z,109.50
2022-12-14T01:44:52.875Z,112.68
2022-12-14T01:47:25.360Z,98.05
2022-12-14T01:49:58.055Z,120.85
2022-12-14T01:52:30.286Z,97.30
2022-12-14T01:55:02.264Z,98.00
2022-12-14T01:57:35.495Z,100.97
2022-12-14T02:00:07.569Z,95.13
2022-12-14T02:02:37.501Z,107.30
2022-12-14T02:05:08.225Z,106.38
2022-12-14T02:07:36.555Z,104.03
2022-12-14T02:10:07.881Z,105.07
2022-12-14T02:12:41.218Z,102.15
2022-12-14T02:15:10.624Z,97.30
2022-12-14T02:17:39.784Z,95.65
2022-12-14T02:20:09.275Z,91.33
2022-12-14T02:23:05.253Z,103.68
2022-12-14T02:26:15.972Z,105.97
2022-12-14T02:29:07.736Z,105.78
2022-12-14T02:31:44.429Z,100.22
2022-12-14T02:34:19.552Z,39.33
2022-12-14T02:36:58.072Z,95.80
2022-12-14T02:39:35.094Z,91.38
2022-12-14T02:42:09.349Z,98.35
2022-12-14T02:44:41.596Z,99.30
2022-12-14T02:47:16.393Z,94.55
2022-12-14T02:49:54.057Z,97.82
2022-12-14T02:52:28.740Z,90.28
2022-12-14T02:55:02.019Z,75.18
2022-12-14T02:57:34.145Z,102.57
2022-12-14T03:00:06.009Z,115.93
2022-12-14T03:02:37.863Z,95.75
2022-12-14T03:05:11.159Z,99.18
2022-12-14T03:07:43.019Z,107.23
2022-12-14T03:10:19.167Z,71.05
2022-12-14T03:12:52.683Z,114.25
2022-12-14T03:15:23.333Z,84.25
2022-12-14T03:17:56.198Z,98.97
2022-12-14T03:20:26.870Z,100.85
2022-12-14T03:22:59.453Z,68.80
2022-12-14T03:25:32.487Z,86.85
2022-12-14T03:28:04.943Z,90.72
2022-12-14T03:30:58.947Z,97.85
2022-12-14T03:33:26.605Z,64.35
2022-12-14T03:35:59.860Z,75.15
2022-12-14T03:38:33.742Z,62.83
2022-12-14T03:41:12.839Z,47.17
2022-12-14T03:43:49.773Z,90.88
2022-12-14T03:46:26.317Z,88.70
2022-12-14T03:48:59.314Z,56.33
2022-12-14T03:51:33.774Z,48.65
2022-12-14T03:54:06.832Z,79.68
2022-12-14T03:56:39.830Z,88.65
2022-12-14T03:59:11.674Z,101.07
2022-12-14T04:01:43.937Z,96.10
2022-12-14T04:04:17.050Z,65.93
2022-12-14T04:06:49.135Z,88.45
2022-12-14T04:09:25.809Z,90.35
2022-12-14T04:12:15.110Z,97.80
2022-12-14T04:15:04.240Z,82.35
2022-12-14T04:17:52.789Z,73.75
2022-12-14T04:20:25.728Z,93.07
2022-12-14T04:22:58.753Z,74.50
2022-12-14T04:25:49.246Z,93.57
2022-12-14T04:28:33.957Z,90.28
2022-12-14T04:31:05.739Z,92.38
2022-12-14T04:33:48.372Z,99.50
2022-12-14T04:36:22.666Z,90.65
2022-12-14T04:38:55.932Z,77.10
2022-12-14T04:41:27.780Z,101.97
2022-12-14T04:43:57.620Z,93.13
2022-12-14T04:46:28.386Z,99.07
2022-12-14T04:49:00.363Z,85.57
2022-12-14T04:51:33.550Z,105.28
2022-12-14T04:54:06.880Z,87.05
2022-12-14T04:56:38.326Z,78.43
2022-12-14T04:59:07.484Z,99.57
2022-12-14T05:01:43.994Z,107.22
2022-12-14T05:04:25.785Z,99.10
2022-12-14T05:07:07.307Z,105.15
2022-12-14T05:09:40.611Z,90.20
2022-12-14T05:12:12.125Z,75.03
2022-12-14T05:14:47.474Z,96.65
2022-12-14T05:17:16.859Z,100.25
2022-12-14T05:19:49.694Z,100.50
2022-12-14T05:22:20.821Z,107.30
2022-12-14T05:24:49.972Z,100.38
2022-12-14T05:27:18.788Z,70.90
2022-12-14T05:29:47.548Z,84.15
2022-12-14T05:32:16.361Z,104.05
2022-12-14T05:34:44.702Z,92.20
2022-12-14T05:37:18.203Z,97.07
2022-12-14T05:39:49.053Z,114.53
2022-12-14T05:42:18.128Z,90.40
2022-12-14T05:44:48.019Z,103.47
2022-12-14T05:47:16.978Z,103.13
2022-12-14T05:49:45.314Z,112.03
2022-12-14T05:52:18.116Z,101.57
2022-12-14T05:54:48.379Z,105.93
2022-12-14T05:57:17.168Z,95.45
2022-12-14T05:59:45.906Z,94.22
2022-12-14T06:02:14.800Z,95.97
2022-12-14T06:04:43.356Z,101.57
2022-12-14T06:07:12.882Z,101.57
2022-12-14T06:09:41.630Z,97.22
2022-12-14T06:12:11.859Z,102.85
2022-12-14T06:14:40.682Z,100.43
2022-12-14T06:17:09.475Z,89.72
2022-12-14T06:19:37.907Z,97.25
2022-12-14T06:22:06.663Z,88.22
2022-12-14T06:24:36.119Z,101.53
2022-12-14T06:27:05.103Z,89.28
2022-12-14T06:29:35.518Z,102.40
2022-12-14T06:32:04.518Z,99.13
2022-12-14T06:34:38.533Z,87.45
2022-12-14T06:37:08.076Z,67.53
2022-12-14T06:39:38.192Z,91.50
2022-12-14T06:42:07.388Z,118.30
2022-12-14T06:44:37.694Z,98.03
2022-12-14T06:47:06.495Z,65.50
2022-12-14T06:49:35.022Z,97.18
2022-12-14T06:52:03.691Z,107.38
2022-12-14T06:54:32.843Z,52.72
2022-12-14T06:57:02.353Z,84.43
2022-12-14T06:59:31.060Z,104.40
2022-12-14T07:02:01.186Z,112.10
2022-12-14T07:06:58.255Z,110.32
2022-12-14T07:09:26.933Z,111.90
2022-12-14T07:11:55.755Z,94.90
2022-12-14T07:14:24.484Z,105.28
2022-12-14T07:16:53.247Z,98.25
2022-12-14T07:19:23.546Z,75.13
2022-12-14T07:21:52.214Z,91.28
2022-12-14T07:24:20.943Z,107.10
2022-12-14T07:26:49.802Z,116.38
2022-12-14T07:29:18.509Z,62.45
2022-12-14T07:31:49.612Z,107.72
2022-12-14T07:34:18.601Z,69.53
2022-12-14T07:36:50.715Z,93.07
2022-12-14T07:39:19.686Z,101.22
2022-12-14T07:41:50.714Z,102.83
2022-12-14T07:44:22.866Z,104.97
2022-12-14T07:46:51.317Z,96.90
2022-12-14T07:49:20.328Z,92.13
2022-12-14T07:51:50.663Z,99.88
2022-12-14T07:54:19.471Z,92.57
2022-12-14T07:56:48.187Z,91.63
2022-12-14T07:59:20.267Z,77.07
2022-12-14T08:04:18.673Z,78.20
2022-12-14T08:06:48.165Z,78.60
2022-12-14T08:09:20.239Z,74.88
2022-12-14T08:11:49.266Z,66.07
2022-12-14T08:14:19.695Z,83.97
2022-12-14T08:16:48.911Z,76.88
2022-12-14T08:19:18.635Z,67.30
2022-12-14T08:21:47.547Z,81.35
2022-12-14T08:24:18.619Z,76.22
2022-12-14T08:26:49.769Z,82.03
2022-12-14T08:29:19.185Z,82.82
2022-12-14T08:31:47.792Z,77.57
2022-12-14T08:34:22.157Z,73.55
2022-12-14T08:36:51.238Z,79.35
2022-12-14T08:39:22.054Z,73.88
2022-12-14T08:41:51.189Z,75.53
2022-12-14T08:44:19.927Z,81.18
2022-12-14T08:46:48.390Z,83.93
2022-12-14T08:49:17.426Z,84.35
2022-12-14T08:51:46.330Z,57.85
2022-12-14T08:54:15.010Z,73.93
2022-12-14T08:56:45.095Z,82.70
2022-12-14T08:59:36.590Z,89.82
2022-12-14T09:02:04.353Z,97.45
2022-12-14T09:04:33.412Z,78.70
2022-12-14T09:07:02.399Z,102.35
2022-12-14T09:09:36.729Z,78.90
2022-12-14T09:12:09.694Z,74.85
2022-12-14T09:14:38.657Z,67.65
2022-12-14T09:17:07.640Z,67.97
2022-12-14T09:19:36.162Z,67.03
2022-12-14T09:22:05.478Z,65.95
2022-12-14T09:24:34.319Z,70.20
2022-12-14T09:27:03.775Z,69.53
2022-12-14T09:29:34.132Z,70.30
2022-12-14T09:34:31.034Z,67.82
2022-12-14T09:37:04.607Z,64.22
2022-12-14T09:39:33.542Z,57.35
2022-12-14T09:42:12.765Z,66.60
2022-12-14T09:44:52.994Z,59.33
2022-12-14T09:47:25.265Z,68.88
2022-12-14T09:49:56.943Z,68.68
2022-12-14T09:52:40.506Z,58.95
2022-12-14T09:55:18.836Z,69.78
2022-12-14T09:57:49.598Z,58.70
2022-12-14T10:00:20.817Z,71.13
2022-12-14T10:03:06.543Z,67.00
2022-12-14T10:05:58.636Z,66.95
2022-12-14T10:08:31.037Z,71.38
2022-12-14T10:11:07.559Z,67.30
2022-12-14T10:13:45.993Z,67.90
2022-12-14T10:16:23.497Z,66.13
2022-12-14T10:19:07.223Z,72.13
2022-12-14T10:21:44.627Z,63.05
2022-12-14T10:24:18.271Z,65.30
2022-12-14T10:26:50.218Z,67.38
2022-12-14T10:29:26.698Z,65.68
2022-12-14T10:32:04.391Z,60.53
2022-12-14T10:34:34.807Z,62.85
2022-12-14T10:39:44.226Z,58.03
2022-12-14T10:42:23.927Z,55.70
2022-12-14T10:47:52.729Z,54.05
2022-12-14T10:50:25.827Z,53.22
2022-12-14T10:52:55.535Z,53.10
2022-12-14T10:55:28.197Z,51.67
2022-12-14T10:57:56.933Z,50.92
2022-12-14T11:00:25.685Z,49.80
2022-12-14T11:02:57.792Z,57.85
2022-12-14T11:05:36.661Z,56.45
2022-12-14T11:08:07.407Z,57.33
2022-12-14T11:10:37.476Z,53.67
2022-12-14T11:13:08.405Z,54.20
2022-12-14T11:15:39.265Z,59.33
2022-12-14T11:18:29.403Z,52.10
2022-12-14T11:23:29.523Z,54.28
2022-12-14T11:26:00.097Z,53.75
2022-12-14T11:28:36.654Z,59.20
2022-12-14T11:31:08.735Z,56.97
2022-12-14T11:33:40.442Z,50.13
2022-12-14T11:36:10.247Z,55.00
2022-12-14T11:38:39.146Z,49.03
2022-12-14T11:41:11.911Z,53.28
2022-12-14T11:43:40.521Z,49.10
2022-12-14T11:46:09.406Z,49.90
2022-12-14T11:48:48.928Z,37.08
2022-12-14T11:51:17.651Z,46.00
2022-12-14T11:54:02.687Z,50.95
2022-12-14T11:56:31.421Z,45.35
2022-12-14T11:59:00.210Z,50.90
2022-12-14T12:01:28.649Z,42.47
2022-12-14T12:04:00.681Z,40.65
2022-12-14T12:06:30.668Z,35.70
2022-12-14T12:09:00.695Z,46.33
2022-12-14T12:11:34.048Z,35.35
2022-12-14T12:14:05.799Z,34.40
2022-12-14T12:16:35.728Z,38.40
2022-12-14T12:21:42.620Z,39.70
2022-12-14T12:26:43.870Z,39.47
2022-12-14T12:29:23.088Z,46.65
2022-12-14T12:31:56.481Z,49.72
2022-12-14T12:34:29.395Z,39.42
2022-12-14T12:37:25.376Z,42.70
2022-12-14T12:39:53.688Z,57.42
2022-12-14T12:42:26.929Z,54.03
2022-12-14T12:44:59.660Z,55.28
2022-12-14T12:47:40.074Z,58.83
2022-12-14T12:50:18.644Z,62.28
2022-12-14T12:53:00.930Z,56.63
2022-12-14T12:55:34.216Z,44.05
2022-12-14T12:58:05.031Z,48.72
2022-12-14T13:00:35.241Z,48.28
2022-12-14T13:03:11.033Z,55.25
2022-12-14T13:05:47.638Z,61.20
2022-12-14T13:08:23.528Z,42.17
2022-12-14T13:13:44.842Z,51.38
2022-12-14T13:16:18.632Z,58.75
2022-12-14T13:19:18.645Z,42.22
2022-12-14T13:21:49.963Z,46.22
2022-12-14T13:24:20.441Z,40.28
2022-12-14T13:29:36.039Z,37.58
2022-12-14T13:32:10.944Z,35.25
2022-12-14T13:34:45.992Z,64.47
2022-12-14T13:37:37.932Z,61.83
2022-12-14T13:40:40.673Z,59.40
2022-12-14T13:43:19.466Z,54.65
2022-12-14T13:45:49.889Z,67.93
2022-12-14T13:48:24.576Z,31.65
2022-12-14T13:51:01.890Z,63.67
2022-12-14T13:53:36.457Z,66.07
2022-12-14T13:56:06.254Z,59.85
2022-12-14T13:58:39.125Z,53.60
2022-12-14T14:01:08.732Z,46.47
2022-12-14T14:03:58.789Z,57.35
2022-12-14T14:09:41.701Z,67.10
2022-12-14T14:12:46.635Z,48.78
2022-12-14T14:15:47.335Z,54.28
2022-12-14T14:18:30.376Z,41.28
2022-12-14T14:21:38.851Z,54.65
2022-12-14T14:24:23.484Z,63.40
2022-12-14T14:27:11.486Z,66.82
2022-12-14T14:29:45.857Z,61.85
2022-12-14T14:32:38.509Z,74.97
2022-12-14T14:35:09.312Z,61.05
2022-12-14T14:37:39.160Z,70.93
2022-12-14T14:40:44.301Z,41.47
2022-12-14T14:43:24.862Z,39.60
2022-12-14T14:45:55.716Z,62.17
2022-12-14T14:48:33.767Z,71.60
2022-12-14T14:51:06.118Z,65.97
2022-12-14T14:53:35.841Z,52.80
2022-12-14T14:56:36.500Z,73.05
2022-12-14T14:59:41.960Z,67.38
2022-12-14T15:02:26.876Z,69.25
2022-12-14T15:04:57.484Z,68.05
2022-12-14T15:07:29.677Z,66.40
2022-12-14T15:10:03.174Z,72.07
2022-12-14T15:12:35.514Z,75.65
2022-12-14T15:15:07.164Z,67.13
2022-12-14T15:17:36.051Z,74.78
2022-12-14T15:20:22.849Z,67.68
2022-12-14T15:22:52.148Z,76.40
2022-12-14T15:25:25.029Z,68.55
2022-12-14T15:27:54.611Z,71.40
2022-12-14T15:30:25.832Z,58.40
2022-12-14T15:32:56.703Z,69.32
2022-12-14T15:35:29.459Z,71.53
2022-12-14T15:38:00.359Z,71.70
2022-12-14T15:40:30.454Z,70.57
2022-12-14T15:43:00.796Z,76.53
2022-12-14T15:45:31.591Z,73.22
2022-12-14T15:48:14.289Z,72.15
2022-12-14T15:50:45.448Z,54.75
2022-12-14T15:53:15.194Z,58.10
2022-12-14T15:55:44.238Z,88.80
2022-12-14T15:58:20.704Z,83.28
2022-12-14T16:00:52.849Z,81.05
2022-12-14T16:03:28.888Z,78.05
2022-12-14T16:06:00.519Z,80.40
2022-12-14T16:08:30.514Z,91.45
2022-12-14T16:11:04.570Z,63.40
2022-12-14T16:13:35.415Z,76.40
2022-12-14T16:16:08.917Z,81.30
2022-12-14T16:18:41.060Z,64.03
2022-12-14T16:21:27.111Z,70.22
2022-12-14T16:23:56.533Z,82.22
2022-12-14T16:26:27.726Z,79.47
2022-12-14T16:29:09.247Z,73.50
2022-12-14T16:31:39.290Z,78.85
2022-12-14T16:36:39.764Z,72.22
2022-12-14T16:41:39.639Z,68.43
2022-12-14T16:44:11.456Z,55.03
2022-12-14T16:46:40.495Z,77.05
2022-12-14T16:49:24.306Z,49.83
2022-12-14T16:52:09.126Z,73.25
2022-12-14T16:54:39.792Z,71.95
2022-12-14T16:57:19.328Z,75.13
2022-12-14T16:59:49.126Z,56.88
2022-12-14T17:02:28.520Z,64.45
2022-12-14T17:04:58.413Z,64.57
2022-12-14T17:07:30.658Z,58.65
2022-12-14T17:09:59.542Z,72.00
2022-12-14T17:12:28.435Z,66.53
2022-12-14T17:14:57.319Z,68.63
2022-12-14T17:17:30.179Z,64.43
2022-12-14T17:19:58.539Z,70.18
2022-12-14T17:22:31.495Z,40.92
2022-12-14T17:25:02.626Z,69.90
2022-12-14T17:27:31.673Z,64.93
2022-12-14T17:30:00.465Z,50.28
2022-12-14T17:32:31.867Z,71.35
2022-12-14T17:35:01.014Z,58.08
2022-12-14T17:37:36.161Z,61.25
2022-12-14T17:40:08.084Z,68.22
2022-12-14T17:42:39.344Z,69.93
2022-12-14T17:45:11.452Z,74.32
2022-12-14T17:47:40.358Z,63.72
2022-12-14T17:50:11.298Z,67.47
2022-12-14T17:52:41.185Z,75.22
2022-12-14T17:55:17.309Z,72.65
2022-12-14T17:57:46.218Z,68.82
2022-12-14T18:00:34.827Z,66.50
2022-12-14T18:03:04.996Z,74.40
2022-12-14T18:05:34.213Z,73.43
2022-12-14T18:08:04.579Z,48.22
2022-12-14T18:13:02.519Z,68.30
2022-12-14T18:15:34.214Z,67.45
2022-12-14T18:18:03.053Z,72.45
2022-12-14T18:20:32.101Z,69.03
2022-12-14T18:23:00.854Z,74.35
2022-12-14T18:25:33.927Z,68.07
2022-12-14T18:28:04.924Z,71.38
2022-12-14T18:30:40.574Z,73.20
2022-12-14T18:33:15.416Z,72.07
2022-12-14T18:35:45.529Z,79.55
2022-12-14T18:40:44.648Z,74.25
2022-12-14T18:43:20.200Z,70.72
2022-12-14T18:45:49.041Z,73.47
2022-12-14T18:48:55.049Z,76.28
2022-12-14T18:52:04.075Z,45.10
2022-12-14T18:55:17.875Z,64.80
2022-12-14T18:58:29.720Z,58.40
2022-12-14T19:01:38.885Z,58.38
2022-12-14T19:04:49.051Z,61.45
2022-12-14T19:11:10.933Z,62.00
2022-12-14T19:14:21.313Z,67.20
2022-12-14T19:17:31.058Z,50.17
2022-12-14T19:20:40.097Z,78.85
2022-12-14T19:23:49.071Z,72.43
2022-12-14T19:26:57.988Z,58.25
2022-12-14T19:30:11.711Z,57.47
2022-12-14T19:33:21.300Z,76.40
2022-12-14T19:36:30.288Z,58.85
2022-12-14T19:39:39.301Z,56.33
2022-12-14T19:42:48.448Z,73.85
2022-12-14T19:45:58.805Z,74.68
2022-12-14T19:49:09.600Z,62.63
2022-12-14T19:52:18.663Z,64.20
2022-12-14T19:55:27.764Z,56.00
2022-12-14T19:58:36.939Z,69.47
2022-12-14T20:01:48.303Z,71.47
2022-12-14T20:04:57.569Z,73.82
2022-12-14T20:08:07.047Z,61.95
2022-12-14T20:11:16.105Z,83.63
2022-12-14T20:14:25.279Z,74.68
2022-12-14T20:17:35.723Z,75.28
2022-12-14T20:20:45.169Z,69.50
2022-12-14T20:23:59.110Z,68.85
2022-12-14T20:27:08.072Z,55.35
2022-12-14T20:30:17.035Z,74.80
2022-12-14T20:33:30.572Z,64.85
2022-12-14T20:36:39.899Z,69.70
2022-12-14T20:39:48.854Z,73.47
2022-12-14T20:42:57.873Z,82.47
2022-12-14T20:46:07.110Z,76.90
2022-12-14T20:49:21.614Z,69.10
2022-12-14T20:52:30.863Z,74.15
2022-12-14T20:55:39.936Z,77.23
2022-12-14T20:58:49.222Z,70.18
2022-12-14T21:01:58.256Z,69.22
2022-12-14T21:05:09.623Z,73.53
2022-12-14T21:08:18.550Z,69.28
2022-12-14T21:11:45.185Z,69.72
2022-12-14T21:14:55.006Z,74.63
2022-12-14T21:18:04.053Z,70.78
2022-12-14T21:21:14.420Z,66.00
2022-12-14T21:25:01.069Z,70.95
2022-12-14T21:27:53.423Z,68.47
2022-12-14T21:31:04.259Z,71.53
2022-12-14T21:34:15.769Z,65.88
2022-12-14T21:37:26.101Z,63.65
2022-12-14T21:40:52.987Z,64.05
2022-12-14T21:44:01.993Z,67.00
2022-12-14T21:47:13.284Z,62.30
2022-12-14T21:50:22.284Z,67.00
2022-12-14T21:53:35.413Z,66.90
2022-12-14T21:57:02.486Z,58.50
2022-12-14T22:00:12.275Z,67.72
2022-12-14T22:03:21.119Z,64.75
2022-12-14T22:06:30.111Z,67.07
2022-12-14T22:09:40.363Z,69.40
2022-12-14T22:15:57.823Z,62.97
2022-12-14T22:19:06.837Z,64.25
2022-12-14T22:22:16.505Z,71.30
2022-12-14T22:25:26.945Z,68.38
2022-12-14T22:28:35.842Z,70.47
2022-12-14T22:31:45.062Z,56.60
2022-12-14T22:34:54.230Z,67.03
2022-12-14T22:38:03.255Z,68.65
2022-12-14T22:41:15.566Z,60.42
2022-12-14T22:44:24.502Z,66.18
2022-12-14T22:47:33.453Z,61.08
2022-12-14T22:50:42.436Z,60.92
2022-12-14T22:53:51.369Z,57.47
2022-12-14T22:57:03.849Z,55.55
2022-12-14T23:00:16.526Z,63.05
2022-12-14T23:03:26.852Z,63.05
2022-12-14T23:06:36.055Z,61.72
2022-12-14T23:10:02.621Z,63.20
2022-12-14T23:13:31.225Z,56.65
2022-12-14T23:16:57.672Z,60.30
2022-12-14T23:20:24.756Z,61.72
2022-12-14T23:23:51.229Z,64.72
2022-12-14T23:27:17.895Z,64.55
2022-12-14T23:30:45.839Z,57.13
2022-12-14T23:34:12.152Z,60.88
2022-12-14T23:37:38.141Z,62.05
2022-12-14T23:41:04.511Z,59.22
2022-12-14T23:44:30.688Z,68.32
2022-12-14T23:47:58.213Z,59.15
2022-12-14T23:51:24.940Z,62.67
2022-12-14T23:54:51.523Z,54.63
2022-12-14T23:58:17.644Z,58.75
